createdAt,value
2018-02-21T00:00:54.056Z,994.67
2018-02-21T00:02:04.043Z,994.67
2018-02-21T00:03:13.770Z,994.69
2018-02-21T00:04:23.754Z,994.65
2018-02-21T00:05:33.218Z,994.6
2018-02-21T00:06:43.222Z,994.62
2018-02-21T00:07:52.941Z,994.63
2018-02-21T00:09:02.985Z,994.62
2018-02-21T00:10:12.972Z,994.57
2018-02-21T00:11:22.975Z,994.6
2018-02-21T00:12:32.962Z,994.63
2018-02-21T00:13:42.989Z,994.57
2018-02-21T00:14:52.710Z,994.54
2018-02-21T00:16:02.166Z,994.62
2018-02-21T00:17:12.159Z,994.59
2018-02-21T00:18:22.145Z,994.62
2018-02-21T00:19:32.181Z,994.62
2018-02-21T00:20:41.905Z,994.62
2018-02-21T00:21:51.899Z,994.58
2018-02-21T00:23:01.633Z,994.62
2018-02-21T00:24:11.085Z,994.57
2018-02-21T00:25:20.807Z,994.61
2018-02-21T00:26:30.796Z,994.57
2018-02-21T00:27:40.511Z,994.58
2018-02-21T00:28:50.240Z,994.5
2018-02-21T00:30:00.227Z,994.49
2018-02-21T00:31:10.210Z,994.44
2018-02-21T00:32:20.249Z,994.43
2018-02-21T00:33:29.973Z,994.42
2018-02-21T00:34:39.695Z,994.47
2018-02-21T00:35:49.435Z,994.45
2018-02-21T00:36:59.426Z,994.42
2018-02-21T00:38:09.421Z,994.42
2018-02-21T00:39:19.140Z,994.41
2018-02-21T00:40:28.596Z,994.39
2018-02-21T00:41:38.592Z,994.39
2018-02-21T00:42:48.576Z,994.39
2018-02-21T00:43:58.563Z,994.39
2018-02-21T00:45:08.286Z,994.37
2018-02-21T00:46:18.270Z,994.35
2018-02-21T00:47:27.989Z,994.34
2018-02-21T00:48:37.984Z,994.33
2018-02-21T00:49:47.751Z,994.32
2018-02-21T00:50:57.474Z,994.32
2018-02-21T00:52:07.467Z,994.31
2018-02-21T00:53:17.315Z,994.36
2018-02-21T00:54:27.308Z,994.34
2018-02-21T00:55:37.028Z,994.26
2018-02-21T00:56:47.015Z,994.3
2018-02-21T00:57:56.756Z,994.28
2018-02-21T00:59:06.751Z,994.19
2018-02-21T01:00:16.740Z,994.19
2018-02-21T01:01:26.734Z,994.21
2018-02-21T01:02:36.730Z,994.21
2018-02-21T01:03:46.716Z,994.22
2018-02-21T01:04:56.712Z,994.17
2018-02-21T01:06:06.701Z,994.23
2018-02-21T01:07:16.699Z,994.18
2018-02-21T01:08:26.150Z,994.19
2018-02-21T01:09:36.135Z,994.16
2018-02-21T01:10:46.123Z,994.14
2018-02-21T01:11:56.111Z,994.13
2018-02-21T01:13:05.834Z,994.13
2018-02-21T01:14:15.822Z,994.07
2018-02-21T01:15:25.547Z,994.01
2018-02-21T01:16:35.264Z,994.02
2018-02-21T01:17:44.984Z,994.03
2018-02-21T01:18:54.705Z,993.96
2018-02-21T01:20:04.158Z,993.99
2018-02-21T01:21:14.157Z,993.99
2018-02-21T01:22:24.148Z,993.97
2018-02-21T01:23:33.865Z,993.95
2018-02-21T01:24:43.858Z,993.93
2018-02-21T01:25:53.848Z,993.93
2018-02-21T01:27:03.834Z,993.93
2018-02-21T01:28:13.552Z,993.96
2018-02-21T01:29:23.538Z,993.93
2018-02-21T01:30:33.264Z,993.97
2018-02-21T01:31:42.985Z,993.96
2018-02-21T01:32:52.977Z,993.94
2018-02-21T01:34:02.984Z,993.89
2018-02-21T01:35:12.969Z,993.87
2018-02-21T01:36:22.687Z,993.87
2018-02-21T01:37:32.675Z,993.88
2018-02-21T01:38:42.666Z,993.92
2018-02-21T01:39:52.387Z,993.9
2018-02-21T01:41:02.115Z,993.92
2018-02-21T01:42:12.149Z,993.89
2018-02-21T01:43:22.141Z,993.86
2018-02-21T01:44:31.854Z,993.84
2018-02-21T01:45:41.844Z,993.83
2018-02-21T01:46:51.829Z,993.85
2018-02-21T01:48:01.548Z,993.82
2018-02-21T01:49:11.536Z,993.85
2018-02-21T01:50:21.533Z,993.82
2018-02-21T01:51:31.296Z,993.87
2018-02-21T01:52:41.284Z,993.8
2018-02-21T01:53:51.266Z,993.8
2018-02-21T01:55:01.261Z,993.75
2018-02-21T01:56:10.977Z,993.77
2018-02-21T01:57:20.694Z,993.79
2018-02-21T01:58:30.679Z,993.8
2018-02-21T01:59:40.406Z,993.83
2018-02-21T02:00:50.396Z,993.81
2018-02-21T02:02:00.383Z,993.84
2018-02-21T02:03:09.837Z,993.82
2018-02-21T02:04:19.834Z,993.78
2018-02-21T02:05:29.655Z,993.81
2018-02-21T02:06:39.645Z,993.87
2018-02-21T02:07:49.638Z,993.85
2018-02-21T02:08:59.088Z,993.81
2018-02-21T02:10:09.086Z,993.85
2018-02-21T02:11:19.086Z,993.86
2018-02-21T02:12:28.812Z,993.85
2018-02-21T02:13:38.534Z,993.86
2018-02-21T02:14:48.535Z,993.87
2018-02-21T02:15:58.523Z,993.88
2018-02-21T02:17:08.239Z,993.85
2018-02-21T02:18:17.968Z,993.87
2018-02-21T02:19:27.958Z,993.92
2018-02-21T02:20:37.676Z,993.95
2018-02-21T02:21:47.393Z,993.9
2018-02-21T02:22:57.430Z,993.86
2018-02-21T02:24:07.418Z,993.86
2018-02-21T02:25:17.141Z,993.88
2018-02-21T02:26:26.857Z,993.87
2018-02-21T02:27:36.844Z,993.87
2018-02-21T02:28:46.562Z,993.88
2018-02-21T02:29:56.554Z,993.88
2018-02-21T02:31:06.555Z,993.9
2018-02-21T02:32:16.554Z,993.9
2018-02-21T02:33:26.287Z,993.92
2018-02-21T02:34:36.286Z,993.89
2018-02-21T02:35:46.287Z,993.89
2018-02-21T02:36:56.283Z,993.89
2018-02-21T02:38:06.273Z,993.89
2018-02-21T02:39:16.267Z,993.83
2018-02-21T02:40:26.094Z,993.8
2018-02-21T02:41:36.102Z,993.77
2018-02-21T02:42:46.110Z,993.78
2018-02-21T02:43:55.860Z,993.78
2018-02-21T02:45:05.606Z,993.81
2018-02-21T02:46:15.603Z,993.8
2018-02-21T02:47:25.595Z,993.79
2018-02-21T02:48:35.320Z,993.8
2018-02-21T02:49:45.314Z,993.77
2018-02-21T02:50:55.308Z,993.72
2018-02-21T02:52:05.079Z,993.68
2018-02-21T02:53:15.072Z,993.68
2018-02-21T02:54:24.803Z,993.69
2018-02-21T02:55:34.272Z,993.7
2018-02-21T02:56:43.747Z,993.68
2018-02-21T02:57:53.524Z,993.69
2018-02-21T02:59:03.524Z,993.77
2018-02-21T03:00:13.249Z,993.77
2018-02-21T03:01:23.245Z,993.77
2018-02-21T03:02:32.690Z,993.79
2018-02-21T03:03:42.694Z,993.8
2018-02-21T03:04:52.685Z,993.81
2018-02-21T03:06:02.406Z,993.81
2018-02-21T03:07:11.871Z,993.79
2018-02-21T03:08:21.854Z,993.76
2018-02-21T03:09:31.307Z,993.72
2018-02-21T03:10:41.295Z,993.75
2018-02-21T03:11:51.285Z,993.74
2018-02-21T03:13:01.010Z,993.73
2018-02-21T03:14:10.999Z,993.71
2018-02-21T03:15:20.992Z,993.72
2018-02-21T03:16:30.984Z,993.71
2018-02-21T03:17:40.709Z,993.7
2018-02-21T03:18:50.435Z,993.64
2018-02-21T03:20:00.153Z,993.63
2018-02-21T03:21:09.608Z,993.61
2018-02-21T03:22:19.598Z,993.6
2018-02-21T03:23:29.586Z,993.59
2018-02-21T03:24:39.308Z,993.62
2018-02-21T03:25:49.294Z,993.62
2018-02-21T03:26:59.274Z,993.64
2018-02-21T03:28:09.256Z,993.61
2018-02-21T03:29:18.977Z,993.59
2018-02-21T03:30:28.965Z,993.59
2018-02-21T03:31:38.701Z,993.56
2018-02-21T03:32:48.690Z,993.55
2018-02-21T03:33:58.694Z,993.56
2018-02-21T03:35:08.680Z,993.54
2018-02-21T03:36:18.678Z,993.55
2018-02-21T03:37:28.397Z,993.58
2018-02-21T03:38:38.377Z,993.55
2018-02-21T03:39:48.362Z,993.51
2018-02-21T03:40:58.347Z,993.55
2018-02-21T03:42:08.071Z,993.5
2018-02-21T03:43:18.062Z,993.52
2018-02-21T03:44:28.064Z,993.53
2018-02-21T03:45:37.515Z,993.51
2018-02-21T03:46:47.500Z,993.47
2018-02-21T03:47:57.489Z,993.51
2018-02-21T03:49:07.484Z,993.5
2018-02-21T03:50:17.474Z,993.51
2018-02-21T03:51:26.927Z,993.48
2018-02-21T03:52:36.379Z,993.49
2018-02-21T03:53:46.365Z,993.51
2018-02-21T03:54:56.353Z,993.46
2018-02-21T03:56:06.126Z,993.43
2018-02-21T03:57:16.277Z,993.42
2018-02-21T03:58:26.261Z,993.45
2018-02-21T03:59:36.246Z,993.42
2018-02-21T04:00:46.232Z,993.43
2018-02-21T04:05:06.430Z,993.4
2018-02-21T04:06:16.208Z,993.37
2018-02-21T04:07:26.206Z,993.36
2018-02-21T04:08:36.189Z,993.3
2018-02-21T04:09:46.177Z,993.34
2018-02-21T04:10:55.367Z,993.32
2018-02-21T04:12:05.354Z,993.3
2018-02-21T04:13:15.343Z,993.3
2018-02-21T04:14:25.068Z,993.25
2018-02-21T04:15:35.101Z,993.26
2018-02-21T04:16:44.826Z,993.27
2018-02-21T04:17:54.810Z,993.28
2018-02-21T04:19:04.262Z,993.28
2018-02-21T04:20:14.263Z,993.25
2018-02-21T04:21:24.251Z,993.29
2018-02-21T04:22:33.975Z,993.26
2018-02-21T04:23:43.707Z,993.27
2018-02-21T04:24:53.693Z,993.24
2018-02-21T04:26:03.679Z,993.23
2018-02-21T04:27:13.400Z,993.2
2018-02-21T04:28:23.393Z,993.22
2018-02-21T04:29:33.115Z,993.24
2018-02-21T04:30:42.839Z,993.24
2018-02-21T04:31:52.565Z,993.21
2018-02-21T04:33:02.290Z,993.19
2018-02-21T04:34:12.283Z,993.15
2018-02-21T04:35:22.266Z,993.19
2018-02-21T04:36:32.254Z,993.16
2018-02-21T04:37:41.971Z,993.15
2018-02-21T04:38:51.970Z,993.14
2018-02-21T04:40:01.696Z,993.13
2018-02-21T04:41:11.680Z,993.16
2018-02-21T04:42:21.671Z,993.2
2018-02-21T04:43:31.127Z,993.18
2018-02-21T04:44:40.658Z,993.18
2018-02-21T04:45:50.380Z,993.16
2018-02-21T04:47:00.217Z,993.18
2018-02-21T04:48:10.204Z,993.21
2018-02-21T04:49:20.239Z,993.17
2018-02-21T04:50:30.025Z,993.15
2018-02-21T04:51:39.751Z,993.2
2018-02-21T04:52:49.741Z,993.22
2018-02-21T04:53:59.729Z,993.18
2018-02-21T04:55:09.714Z,993.2
2018-02-21T04:56:19.699Z,993.21
2018-02-21T04:57:29.688Z,993.2
2018-02-21T04:58:39.674Z,993.23
2018-02-21T04:59:49.665Z,993.28
2018-02-21T05:00:59.390Z,993.23
2018-02-21T05:02:08.844Z,993.22
2018-02-21T05:03:18.830Z,993.21
2018-02-21T05:04:28.551Z,993.22
2018-02-21T05:05:38.539Z,993.17
2018-02-21T05:06:48.529Z,993.12
2018-02-21T05:07:58.310Z,993.09
2018-02-21T05:09:08.032Z,993.11
2018-02-21T05:10:18.023Z,993.09
2018-02-21T05:11:27.744Z,993.13
2018-02-21T05:12:37.194Z,993.11
2018-02-21T05:13:47.022Z,993.13
2018-02-21T05:14:57.008Z,993.13
2018-02-21T05:16:06.995Z,993.11
2018-02-21T05:17:16.987Z,993.12
2018-02-21T05:18:26.975Z,993.06
2018-02-21T05:19:36.962Z,993.08
2018-02-21T05:20:46.678Z,993.09
2018-02-21T05:21:56.395Z,993.09
2018-02-21T05:23:06.385Z,993.1
2018-02-21T05:24:16.107Z,993.09
2018-02-21T05:25:25.827Z,993.1
2018-02-21T05:26:35.549Z,993.08
2018-02-21T05:27:45.294Z,993.09
2018-02-21T05:28:55.281Z,993.1
2018-02-21T05:30:05.002Z,993.07
2018-02-21T05:31:15.002Z,993.09
2018-02-21T05:32:24.992Z,993.09
2018-02-21T05:33:34.714Z,993.1
2018-02-21T05:34:44.706Z,993.08
2018-02-21T05:35:54.690Z,993.11
2018-02-21T05:37:04.681Z,993.08
2018-02-21T05:38:14.186Z,993.09
2018-02-21T05:39:24.171Z,993.08
2018-02-21T05:40:34.161Z,993.07
2018-02-21T05:41:44.148Z,993.04
2018-02-21T05:42:54.143Z,993.05
2018-02-21T05:44:04.136Z,993.04
2018-02-21T05:45:14.122Z,993.03
2018-02-21T05:46:24.107Z,993.02
2018-02-21T05:47:34.096Z,993.04
2018-02-21T05:48:44.091Z,993.04
2018-02-21T05:49:54.078Z,993.03
2018-02-21T05:51:03.553Z,993.05
2018-02-21T05:52:13.544Z,993.06
2018-02-21T05:53:23.539Z,992.96
2018-02-21T05:54:33.627Z,993.05
2018-02-21T05:55:43.623Z,992.97
2018-02-21T05:56:53.667Z,993
2018-02-21T05:58:03.650Z,992.99
2018-02-21T05:59:13.375Z,993.05
2018-02-21T06:00:23.361Z,993
2018-02-21T06:01:33.346Z,993.01
2018-02-21T06:02:43.334Z,992.98
2018-02-21T06:03:53.328Z,993.05
2018-02-21T06:05:03.064Z,993.07
2018-02-21T06:06:13.162Z,993.05
2018-02-21T06:07:23.153Z,993.06
2018-02-21T06:08:33.147Z,993.02
2018-02-21T06:09:42.874Z,992.99
2018-02-21T06:10:52.591Z,993
2018-02-21T06:12:01.778Z,992.97
2018-02-21T06:13:11.766Z,993.01
2018-02-21T06:14:21.764Z,993
2018-02-21T06:15:31.753Z,993
2018-02-21T06:16:41.475Z,992.99
2018-02-21T06:17:51.457Z,992.96
2018-02-21T06:19:01.182Z,992.96
2018-02-21T06:20:11.173Z,992.95
2018-02-21T06:21:20.897Z,992.97
2018-02-21T06:22:30.617Z,992.95
2018-02-21T06:23:40.343Z,992.95
2018-02-21T06:24:50.061Z,992.92
2018-02-21T06:26:00.195Z,992.96
2018-02-21T06:27:09.916Z,992.94
2018-02-21T06:28:19.639Z,992.94
2018-02-21T06:29:29.418Z,992.93
2018-02-21T06:30:39.145Z,992.91
2018-02-21T06:31:48.865Z,992.92
2018-02-21T06:32:58.854Z,992.96
2018-02-21T06:34:08.858Z,992.97
2018-02-21T06:35:18.589Z,992.91
2018-02-21T06:36:28.316Z,992.91
2018-02-21T06:37:37.774Z,992.95
2018-02-21T06:38:47.497Z,992.98
2018-02-21T06:39:56.951Z,992.98
2018-02-21T06:41:06.676Z,993
2018-02-21T06:42:16.662Z,993.01
2018-02-21T06:43:26.425Z,993
2018-02-21T06:44:36.435Z,992.96
2018-02-21T06:45:45.897Z,992.99
2018-02-21T06:46:55.903Z,993.01
2018-02-21T06:48:05.620Z,993.05
2018-02-21T06:49:15.614Z,993.06
2018-02-21T06:50:25.335Z,993.07
2018-02-21T06:51:35.323Z,993.06
2018-02-21T06:52:45.046Z,993.06
2018-02-21T06:53:54.773Z,993.11
2018-02-21T06:55:04.773Z,993.09
2018-02-21T06:56:14.495Z,993.15
2018-02-21T06:57:24.483Z,993.12
2018-02-21T06:58:33.941Z,993.1
2018-02-21T06:59:43.677Z,993.16
2018-02-21T07:00:53.664Z,993.17
2018-02-21T07:02:03.395Z,993.14
2018-02-21T07:03:13.116Z,993.17
2018-02-21T07:04:23.115Z,993.17
2018-02-21T07:05:33.111Z,993.14
2018-02-21T07:06:42.833Z,993.17
2018-02-21T07:07:52.821Z,993.21
2018-02-21T07:09:02.814Z,993.24
2018-02-21T07:10:12.806Z,993.24
2018-02-21T07:11:22.533Z,993.22
2018-02-21T07:12:32.263Z,993.24
2018-02-21T07:13:42.268Z,993.21
2018-02-21T07:14:51.990Z,993.22
2018-02-21T07:16:01.764Z,993.19
2018-02-21T07:17:11.216Z,993.21
2018-02-21T07:18:21.206Z,993.2
2018-02-21T07:19:31.190Z,993.2
2018-02-21T07:20:41.219Z,993.25
2018-02-21T07:21:51.215Z,993.27
2018-02-21T07:23:00.936Z,993.22
2018-02-21T07:24:10.928Z,993.25
2018-02-21T07:25:20.911Z,993.25
2018-02-21T07:26:30.098Z,993.22
2018-02-21T07:27:39.825Z,993.22
2018-02-21T07:28:49.821Z,993.27
2018-02-21T07:29:59.545Z,993.31
2018-02-21T07:31:09.292Z,993.31
2018-02-21T07:32:19.292Z,993.35
2018-02-21T07:33:29.067Z,993.31
2018-02-21T07:34:39.058Z,993.33
2018-02-21T07:35:49.046Z,993.35
2018-02-21T07:36:58.510Z,993.39
2018-02-21T07:38:08.538Z,993.36
2018-02-21T07:39:17.996Z,993.4
2018-02-21T07:40:27.986Z,993.38
2018-02-21T07:41:37.974Z,993.44
2018-02-21T07:42:47.961Z,993.42
2018-02-21T07:43:57.960Z,993.43
2018-02-21T07:45:07.253Z,993.45
2018-02-21T07:46:17.073Z,993.44
2018-02-21T07:47:27.067Z,993.44
2018-02-21T07:48:36.792Z,993.43
2018-02-21T07:49:46.780Z,993.43
2018-02-21T07:50:56.771Z,993.46
2018-02-21T07:52:06.631Z,993.45
2018-02-21T07:53:16.353Z,993.44
2018-02-21T07:54:26.346Z,993.4
2018-02-21T07:55:36.068Z,993.41
2018-02-21T07:56:46.152Z,993.45
2018-02-21T07:57:56.141Z,993.45
2018-02-21T07:59:06.133Z,993.44
2018-02-21T08:00:16.147Z,993.45
2018-02-21T08:01:26.138Z,993.47
2018-02-21T08:02:35.590Z,993.46
2018-02-21T08:03:45.581Z,993.46
2018-02-21T08:04:55.300Z,993.41
2018-02-21T08:06:05.423Z,993.42
2018-02-21T08:07:14.878Z,993.41
2018-02-21T08:08:24.606Z,993.37
2018-02-21T08:09:34.599Z,993.39
2018-02-21T08:10:44.591Z,993.42
2018-02-21T08:11:54.578Z,993.42
2018-02-21T08:13:04.029Z,993.47
2018-02-21T08:14:14.023Z,993.53
2018-02-21T08:15:23.801Z,993.57
2018-02-21T08:16:33.800Z,993.52
2018-02-21T08:17:43.788Z,993.51
2018-02-21T08:18:53.512Z,993.52
2018-02-21T08:20:03.506Z,993.49
2018-02-21T08:21:13.225Z,993.52
2018-02-21T08:22:22.946Z,993.58
2018-02-21T08:23:32.934Z,993.63
2018-02-21T08:24:42.926Z,993.62
2018-02-21T08:25:52.911Z,993.66
2018-02-21T08:27:02.916Z,993.64
2018-02-21T08:28:12.920Z,993.64
2018-02-21T08:29:23.034Z,993.63
2018-02-21T08:30:32.757Z,993.59
2018-02-21T08:31:42.744Z,993.6
2018-02-21T08:32:52.736Z,993.61
2018-02-21T08:34:02.736Z,993.58
2018-02-21T08:35:12.465Z,993.61
2018-02-21T08:36:22.457Z,993.62
2018-02-21T08:37:32.186Z,993.65
2018-02-21T08:38:42.174Z,993.71
2018-02-21T08:39:52.162Z,993.67
2018-02-21T08:41:01.889Z,993.72
2018-02-21T08:42:11.615Z,993.77
2018-02-21T08:43:21.607Z,993.72
2018-02-21T08:44:31.598Z,993.72
2018-02-21T08:45:41.317Z,993.75
2018-02-21T08:46:51.301Z,993.69
2018-02-21T08:48:01.027Z,993.71
2018-02-21T08:49:10.763Z,993.73
2018-02-21T08:50:20.746Z,993.66
2018-02-21T08:51:30.736Z,993.66
2018-02-21T08:52:40.459Z,993.66
2018-02-21T08:53:50.441Z,993.65
2018-02-21T08:55:00.163Z,993.64
2018-02-21T08:56:09.616Z,993.61
2018-02-21T08:57:19.338Z,993.64
2018-02-21T08:58:29.325Z,993.57
2018-02-21T08:59:39.313Z,993.59
2018-02-21T09:00:48.774Z,993.69
2018-02-21T09:01:58.768Z,993.71
2018-02-21T09:03:08.756Z,993.75
2018-02-21T09:04:18.740Z,993.75
2018-02-21T09:05:28.473Z,993.74
2018-02-21T09:06:38.561Z,993.78
2018-02-21T09:07:48.547Z,993.81
2018-02-21T09:08:58.272Z,993.79
2018-02-21T09:10:07.998Z,993.79
2018-02-21T09:11:17.988Z,993.82
2018-02-21T09:12:27.709Z,993.81
2018-02-21T09:13:37.430Z,993.76
2018-02-21T09:14:47.425Z,993.75
2018-02-21T09:15:57.151Z,993.74
2018-02-21T09:17:07.143Z,993.78
2018-02-21T09:18:16.730Z,993.77
2018-02-21T09:19:26.456Z,993.87
2018-02-21T09:20:36.171Z,993.9
2018-02-21T09:21:46.163Z,993.93
2018-02-21T09:22:56.246Z,993.9
2018-02-21T09:24:06.296Z,993.95
2018-02-21T09:25:16.285Z,993.96
2018-02-21T09:26:26.071Z,993.97
2018-02-21T09:27:36.064Z,994.01
2018-02-21T09:28:46.056Z,994.03
2018-02-21T09:29:55.889Z,993.99
2018-02-21T09:31:05.613Z,994.05
2018-02-21T09:32:15.085Z,994.05
2018-02-21T09:33:24.810Z,994.04
2018-02-21T09:34:34.543Z,994.03
2018-02-21T09:35:44.063Z,994.06
2018-02-21T09:36:54.051Z,994.01
2018-02-21T09:38:04.206Z,994.07
2018-02-21T09:39:13.926Z,994.03
2018-02-21T09:40:23.915Z,994.04
2018-02-21T09:41:33.907Z,994.01
2018-02-21T09:42:43.893Z,993.98
2018-02-21T09:43:53.896Z,993.97
2018-02-21T09:45:03.629Z,993.98
2018-02-21T09:46:13.626Z,993.99
2018-02-21T09:47:23.352Z,994.03
2018-02-21T09:48:33.350Z,994.02
2018-02-21T09:49:43.074Z,994.11
2018-02-21T09:50:52.797Z,994.1
2018-02-21T09:52:02.790Z,994.09
2018-02-21T09:53:12.519Z,994.07
2018-02-21T09:54:22.242Z,994.1
2018-02-21T09:55:31.702Z,994.06
2018-02-21T09:56:41.695Z,994.1
2018-02-21T09:57:51.419Z,994.08
2018-02-21T09:59:00.875Z,994.11
2018-02-21T10:00:10.868Z,994.08
2018-02-21T10:01:20.899Z,994.06
2018-02-21T10:02:30.621Z,994.01
2018-02-21T10:03:40.618Z,994.01
2018-02-21T10:04:50.608Z,994.01
2018-02-21T10:06:00.336Z,994.08
2018-02-21T10:07:09.857Z,994.06
2018-02-21T10:08:19.316Z,994.08
2018-02-21T10:09:29.308Z,994.08
2018-02-21T10:10:39.298Z,994.08
2018-02-21T10:11:49.025Z,994.09
2018-02-21T10:12:59.043Z,994.08
2018-02-21T10:14:09.037Z,994.03
2018-02-21T10:15:18.760Z,994
2018-02-21T10:16:28.750Z,994.03
2018-02-21T10:17:38.741Z,994.02
2018-02-21T10:18:48.197Z,994.03
2018-02-21T10:19:58.196Z,994.03
2018-02-21T10:21:07.656Z,994.02
2018-02-21T10:22:17.137Z,994.08
2018-02-21T10:23:26.863Z,994
2018-02-21T10:24:36.861Z,993.99
2018-02-21T10:25:46.863Z,994.01
2018-02-21T10:26:56.906Z,994.12
2018-02-21T10:28:06.637Z,994.17
2018-02-21T10:29:16.637Z,994.14
2018-02-21T10:30:26.625Z,994.12
2018-02-21T10:31:36.616Z,994.13
2018-02-21T10:32:46.615Z,994.12
2018-02-21T10:33:56.658Z,994.09
2018-02-21T10:35:06.654Z,994.1
2018-02-21T10:36:16.381Z,994.05
2018-02-21T10:37:26.112Z,994.04
2018-02-21T10:38:36.102Z,994.07
2018-02-21T10:39:45.560Z,994.08
2018-02-21T10:40:55.285Z,994.08
2018-02-21T10:42:04.478Z,994.05
2018-02-21T10:43:14.218Z,994.07
2018-02-21T10:44:23.958Z,994.05
2018-02-21T10:45:33.687Z,994.14
2018-02-21T10:46:43.421Z,994.11
2018-02-21T10:47:53.420Z,994.15
2018-02-21T10:49:03.146Z,994.16
2018-02-21T10:50:12.876Z,994.17
2018-02-21T10:51:22.881Z,994.15
2018-02-21T10:52:32.343Z,994.15
2018-02-21T10:53:42.336Z,994.14
2018-02-21T10:54:52.060Z,994.18
2018-02-21T10:56:01.788Z,994.19
2018-02-21T10:57:11.883Z,994.21
2018-02-21T10:58:21.624Z,994.2
2018-02-21T10:59:31.350Z,994.21
2018-02-21T11:00:41.145Z,994.23
2018-02-21T11:01:50.902Z,994.26
2018-02-21T11:03:00.638Z,994.28
2018-02-21T11:04:10.640Z,994.35
2018-02-21T11:05:20.108Z,994.37
2018-02-21T11:06:29.850Z,994.37
2018-02-21T11:07:39.857Z,994.34
2018-02-21T11:08:49.375Z,994.3
2018-02-21T11:09:58.837Z,994.3
2018-02-21T11:11:08.910Z,994.36
2018-02-21T11:12:18.936Z,994.35
2018-02-21T11:13:28.930Z,994.36
2018-02-21T11:14:38.656Z,994.28
2018-02-21T11:15:48.427Z,994.32
2018-02-21T11:16:58.420Z,994.32
2018-02-21T11:18:08.155Z,994.35
2018-02-21T11:19:18.153Z,994.29
2018-02-21T11:20:27.934Z,994.3
2018-02-21T11:21:37.682Z,994.28
2018-02-21T11:22:47.677Z,994.24
2018-02-21T11:23:57.677Z,994.25
2018-02-21T11:25:07.685Z,994.28
2018-02-21T11:26:17.413Z,994.27
2018-02-21T11:27:27.152Z,994.3
2018-02-21T11:28:37.148Z,994.33
2018-02-21T11:29:47.161Z,994.31
2018-02-21T11:30:57.162Z,994.27
2018-02-21T11:32:06.944Z,994.26
2018-02-21T11:33:16.687Z,994.31
2018-02-21T11:34:26.691Z,994.3
2018-02-21T11:35:36.694Z,994.3
2018-02-21T11:36:46.690Z,994.33
2018-02-21T11:37:56.726Z,994.3
2018-02-21T11:39:06.217Z,994.35
2018-02-21T11:40:15.946Z,994.37
2018-02-21T11:41:25.941Z,994.32
2018-02-21T11:42:35.403Z,994.37
2018-02-21T11:43:45.234Z,994.39
2018-02-21T11:44:55.229Z,994.36
2018-02-21T11:46:04.962Z,994.38
2018-02-21T11:47:14.958Z,994.36
2018-02-21T11:48:24.421Z,994.48
2018-02-21T11:49:33.616Z,994.37
2018-02-21T11:50:43.628Z,994.37
2018-02-21T11:51:53.660Z,994.37
2018-02-21T11:53:03.389Z,994.34
2018-02-21T11:54:12.852Z,994.34
2018-02-21T11:55:22.585Z,994.33
2018-02-21T11:56:32.053Z,994.29
2018-02-21T11:57:42.095Z,994.38
2018-02-21T11:58:52.179Z,994.38
2018-02-21T12:00:01.921Z,994.4
2018-02-21T12:01:11.653Z,994.29
2018-02-21T12:02:21.653Z,994.3
2018-02-21T12:03:31.645Z,994.31
2018-02-21T12:04:41.648Z,994.36
2018-02-21T12:05:52.081Z,994.36
2018-02-21T12:07:02.092Z,994.36
2018-02-21T12:08:12.097Z,994.31
2018-02-21T12:09:21.826Z,994.33
2018-02-21T12:10:31.831Z,994.45
2018-02-21T12:11:41.837Z,994.44
2018-02-21T12:12:51.843Z,994.49
2018-02-21T12:14:01.575Z,994.46
2018-02-21T12:15:11.324Z,994.47
2018-02-21T12:16:21.328Z,994.49
2018-02-21T12:17:30.794Z,994.45
2018-02-21T12:18:40.605Z,994.43
2018-02-21T12:19:50.336Z,994.4
2018-02-21T12:21:00.331Z,994.42
2018-02-21T12:22:10.060Z,994.41
2018-02-21T12:23:20.064Z,994.34
2018-02-21T12:24:29.793Z,994.36
2018-02-21T12:25:39.855Z,994.38
2018-02-21T12:26:49.854Z,994.33
2018-02-21T12:27:59.318Z,994.4
2018-02-21T12:29:08.783Z,994.41
2018-02-21T12:30:19.136Z,994.38
2018-02-21T12:31:29.145Z,994.37
2018-02-21T12:32:39.145Z,994.34
2018-02-21T12:33:49.147Z,994.33
2018-02-21T12:34:58.926Z,994.27
2018-02-21T12:36:08.934Z,994.29
2018-02-21T12:37:18.129Z,994.28
2018-02-21T12:38:28.132Z,994.33
2018-02-21T12:39:37.857Z,994.33
2018-02-21T12:40:47.600Z,994.34
2018-02-21T12:41:57.067Z,994.29
2018-02-21T12:43:06.805Z,994.28
2018-02-21T12:44:16.810Z,994.27
2018-02-21T12:45:26.576Z,994.29
2018-02-21T12:46:36.315Z,994.3
2018-02-21T12:47:46.418Z,994.29
2018-02-21T12:48:56.422Z,994.35
2018-02-21T12:50:06.427Z,994.35
2018-02-21T12:51:16.559Z,994.36
2018-02-21T12:52:26.559Z,994.39
2018-02-21T12:53:36.295Z,994.43
2018-02-21T12:54:46.295Z,994.44
2018-02-21T12:55:56.297Z,994.34
2018-02-21T12:57:06.023Z,994.35
2018-02-21T12:58:15.485Z,994.36
2018-02-21T12:59:25.214Z,994.36
2018-02-21T13:00:35.212Z,994.43
2018-02-21T13:01:44.945Z,994.37
2018-02-21T13:02:54.944Z,994.38
2018-02-21T13:04:04.949Z,994.33
2018-02-21T13:05:14.943Z,994.34
2018-02-21T13:06:24.944Z,994.31
2018-02-21T13:07:34.676Z,994.33
2018-02-21T13:08:44.796Z,994.3
2018-02-21T13:09:54.527Z,994.29
2018-02-21T13:11:04.525Z,994.33
2018-02-21T13:12:14.530Z,994.29
2018-02-21T13:13:24.533Z,994.31
2018-02-21T13:14:34.264Z,994.27
2018-02-21T13:15:43.997Z,994.29
2018-02-21T13:16:53.475Z,994.3
2018-02-21T13:18:03.474Z,994.28
2018-02-21T13:19:13.207Z,994.23
2018-02-21T13:20:23.205Z,994.27
2018-02-21T13:21:32.935Z,994.29
2018-02-21T13:22:42.699Z,994.26
2018-02-21T13:23:52.707Z,994.25
2018-02-21T13:25:02.474Z,994.23
2018-02-21T13:26:12.471Z,994.24
2018-02-21T13:27:22.205Z,994.23
2018-02-21T13:28:32.200Z,994.22
2018-02-21T13:29:41.928Z,994.22
2018-02-21T13:30:51.924Z,994.27
2018-02-21T13:32:01.927Z,994.28
2018-02-21T13:33:11.660Z,994.25
2018-02-21T13:34:21.412Z,994.25
2018-02-21T13:35:30.873Z,994.19
2018-02-21T13:36:40.344Z,994.19
2018-02-21T13:37:50.081Z,994.17
2018-02-21T13:39:00.085Z,994.13
2018-02-21T13:40:10.094Z,994.14
2018-02-21T13:41:19.827Z,994.18
2018-02-21T13:42:29.826Z,994.17
2018-02-21T13:43:39.561Z,994.17
2018-02-21T13:44:49.560Z,994.15
2018-02-21T13:45:59.323Z,994.25
2018-02-21T13:47:09.057Z,994.25
2018-02-21T13:48:19.054Z,994.27
2018-02-21T13:49:28.785Z,994.21
2018-02-21T13:50:38.804Z,994.21
2018-02-21T13:51:48.585Z,994.25
2018-02-21T13:52:58.313Z,994.21
2018-02-21T13:54:08.044Z,994.23
2018-02-21T13:55:18.039Z,994.16
2018-02-21T13:56:27.953Z,994.14
2018-02-21T13:57:37.677Z,994.13
2018-02-21T13:58:47.672Z,994.12
2018-02-21T13:59:57.674Z,994.16
2018-02-21T14:01:07.421Z,994.15
2018-02-21T14:02:17.415Z,994.17
2018-02-21T14:03:27.412Z,994.21
2018-02-21T14:04:37.143Z,994.21
2018-02-21T14:05:47.251Z,994.22
2018-02-21T14:06:57.262Z,994.24
2018-02-21T14:08:06.995Z,994.29
2018-02-21T14:09:16.986Z,994.27
2018-02-21T14:10:26.720Z,994.29
2018-02-21T14:11:36.720Z,994.28
2018-02-21T14:12:46.730Z,994.27
2018-02-21T14:13:56.730Z,994.32
2018-02-21T14:15:06.831Z,994.32
2018-02-21T14:16:16.829Z,994.31
2018-02-21T14:17:26.836Z,994.34
2018-02-21T14:18:36.626Z,994.27
2018-02-21T14:19:46.356Z,994.23
2018-02-21T14:20:56.083Z,994.22
2018-02-21T14:22:06.083Z,994.24
2018-02-21T14:23:15.813Z,994.2
2018-02-21T14:24:25.812Z,994.23
2018-02-21T14:25:35.806Z,994.27
2018-02-21T14:26:45.800Z,994.27
2018-02-21T14:27:55.522Z,994.26
2018-02-21T14:29:05.522Z,994.22
2018-02-21T14:30:15.633Z,994.21
2018-02-21T14:31:25.632Z,994.25
2018-02-21T14:32:35.366Z,994.26
2018-02-21T14:33:44.834Z,994.22
2018-02-21T14:34:54.558Z,994.24
2018-02-21T14:36:04.294Z,994.25
2018-02-21T14:37:14.291Z,994.21
2018-02-21T14:38:24.015Z,994.23